createdAt,value
2019-01-05T00:00:52.287Z,1014.39
2019-01-05T00:02:02.223Z,1014.24
2019-01-05T00:03:12.173Z,1014.52
2019-01-05T00:04:22.126Z,1014.44
2019-01-05T00:05:31.839Z,1014.25
2019-01-05T00:06:41.780Z,1014.21
2019-01-05T00:07:51.460Z,1014.38
2019-01-05T00:09:00.904Z,1014.36
2019-01-05T00:10:10.587Z,1014.21
2019-01-05T00:11:20.532Z,1014.31
2019-01-05T00:12:30.229Z,1014.32
2019-01-05T00:13:39.911Z,1014.35
2019-01-05T00:14:49.861Z,1014.38
2019-01-05T00:15:59.569Z,1014.25
2019-01-05T00:17:09.513Z,1014.35
2019-01-05T00:18:18.718Z,1014.16
2019-01-05T00:19:28.400Z,1014.11
2019-01-05T00:20:38.350Z,1014.29
2019-01-05T00:21:48.276Z,1014.39
2019-01-05T00:22:58.245Z,1014.07
2019-01-05T00:24:07.959Z,1014.23
2019-01-05T00:25:17.901Z,1013.97
2019-01-05T00:26:27.863Z,1014
2019-01-05T00:27:37.823Z,1014.07
2019-01-05T00:28:47.757Z,1013.97
2019-01-05T00:29:57.698Z,1013.84
2019-01-05T00:31:07.656Z,1014.12
2019-01-05T00:32:17.352Z,1013.78
2019-01-05T00:33:26.542Z,1013.77
2019-01-05T00:34:36.237Z,1013.94
2019-01-05T00:35:46.187Z,1013.83
2019-01-05T00:36:56.150Z,1014.04
2019-01-05T00:38:05.843Z,1013.9
2019-01-05T00:39:15.535Z,1013.87
2019-01-05T00:40:25.225Z,1013.86
2019-01-05T00:41:35.169Z,1013.89
2019-01-05T00:42:45.123Z,1013.88
2019-01-05T00:43:55.054Z,1013.82
2019-01-05T00:45:04.987Z,1013.94
2019-01-05T00:46:14.941Z,1013.77
2019-01-05T00:47:24.889Z,1013.81
2019-01-05T00:48:35.589Z,1013.88
2019-01-05T00:49:45.029Z,1013.95
2019-01-05T00:50:54.987Z,1013.86
2019-01-05T00:52:04.955Z,1013.82
2019-01-05T00:53:14.911Z,1013.79
2019-01-05T00:54:24.609Z,1013.79
2019-01-05T00:55:34.303Z,1013.8
2019-01-05T00:56:44.255Z,1013.73
2019-01-05T00:57:54.210Z,1013.68
2019-01-05T00:59:03.953Z,1013.67
2019-01-05T01:00:13.903Z,1013.64
2019-01-05T01:01:23.589Z,1013.53
2019-01-05T01:02:33.522Z,1013.54
2019-01-05T01:03:43.467Z,1013.55
2019-01-05T01:04:53.411Z,1013.34
2019-01-05T01:06:03.355Z,1013.43
2019-01-05T01:07:13.301Z,1013.37
2019-01-05T01:08:23.003Z,1013.4
2019-01-05T01:09:32.682Z,1013.28
2019-01-05T01:10:42.630Z,1013.5
2019-01-05T01:11:52.569Z,1013.3
2019-01-05T01:13:02.271Z,1013.33
2019-01-05T01:14:12.229Z,1013.26
2019-01-05T01:15:21.675Z,1013.32
2019-01-05T01:16:31.615Z,1013.21
2019-01-05T01:17:40.805Z,1013.24
2019-01-05T01:18:50.764Z,1013.25
2019-01-05T01:20:00.719Z,1013.22
2019-01-05T01:21:10.401Z,1013.22
2019-01-05T01:22:20.388Z,1013.04
2019-01-05T01:23:30.333Z,1013.19
2019-01-05T01:24:40.021Z,1012.9
2019-01-05T01:25:49.711Z,1013.03
2019-01-05T01:26:59.386Z,1013.02
2019-01-05T01:28:09.338Z,1012.91
2019-01-05T01:29:19.025Z,1012.87
2019-01-05T01:30:28.218Z,1012.94
2019-01-05T01:31:37.926Z,1012.91
2019-01-05T01:32:47.876Z,1012.86
2019-01-05T01:33:57.809Z,1012.85
2019-01-05T01:35:07.512Z,1012.84
2019-01-05T01:36:17.472Z,1012.84
2019-01-05T01:37:26.928Z,1012.83
2019-01-05T01:38:36.363Z,1012.81
2019-01-05T01:39:46.049Z,1012.78
2019-01-05T01:40:55.998Z,1012.7
2019-01-05T01:42:05.949Z,1012.75
2019-01-05T01:43:15.895Z,1012.81
2019-01-05T01:44:25.825Z,1012.81
2019-01-05T01:45:37.062Z,1012.82
2019-01-05T01:46:47.019Z,1012.76
2019-01-05T01:47:56.727Z,1012.73
2019-01-05T01:49:06.662Z,1012.77
2019-01-05T01:50:16.094Z,1012.68
2019-01-05T01:51:25.535Z,1012.62
2019-01-05T01:52:35.463Z,1012.67
2019-01-05T01:53:45.404Z,1012.58
2019-01-05T01:54:55.343Z,1012.72
2019-01-05T01:56:05.397Z,1012.65
2019-01-05T01:57:15.086Z,1012.62
2019-01-05T01:58:25.021Z,1012.65
2019-01-05T01:59:34.452Z,1012.72
2019-01-05T02:00:44.390Z,1012.6
2019-01-05T02:01:54.327Z,1012.71
2019-01-05T02:03:05.926Z,1012.64
2019-01-05T02:04:16.009Z,1012.66
2019-01-05T02:05:25.705Z,1012.57
2019-01-05T02:06:35.669Z,1012.53
2019-01-05T02:07:45.612Z,1012.43
2019-01-05T02:08:55.303Z,1012.4
2019-01-05T02:10:04.724Z,1012.46
2019-01-05T02:11:14.430Z,1012.37
2019-01-05T02:12:23.872Z,1012.37
2019-01-05T02:13:33.564Z,1012.46
2019-01-05T02:14:43.005Z,1012.34
2019-01-05T02:15:52.946Z,1012.26
2019-01-05T02:17:02.646Z,1012.29
2019-01-05T02:18:12.327Z,1012.35
2019-01-05T02:19:22.269Z,1012.3
2019-01-05T02:20:32.223Z,1012.26
2019-01-05T02:21:41.922Z,1012.2
2019-01-05T02:22:51.877Z,1012.14
2019-01-05T02:24:01.806Z,1012.09
2019-01-05T02:25:11.505Z,1012.14
2019-01-05T02:26:21.445Z,1012.12
2019-01-05T02:27:31.378Z,1012.07
2019-01-05T02:28:41.069Z,1012.08
2019-01-05T02:29:51.018Z,1012.07
2019-01-05T02:31:00.728Z,1012
2019-01-05T02:32:10.194Z,1012.04
2019-01-05T02:33:19.904Z,1011.9
2019-01-05T02:34:29.866Z,1011.98
2019-01-05T02:35:39.822Z,1011.93
2019-01-05T02:36:49.291Z,1012
2019-01-05T02:37:59.250Z,1011.93
2019-01-05T02:39:08.944Z,1011.94
2019-01-05T02:40:18.895Z,1011.83
2019-01-05T02:41:28.845Z,1011.96
2019-01-05T02:42:38.295Z,1011.77
2019-01-05T02:43:48.239Z,1011.74
2019-01-05T02:44:57.926Z,1011.75
2019-01-05T02:46:07.984Z,1011.74
2019-01-05T02:47:17.431Z,1011.72
2019-01-05T02:48:27.138Z,1011.7
2019-01-05T02:49:37.141Z,1011.68
2019-01-05T02:50:46.833Z,1011.66
2019-01-05T02:51:56.555Z,1011.72
2019-01-05T02:53:06.242Z,1011.78
2019-01-05T02:54:15.941Z,1011.69
2019-01-05T02:55:25.119Z,1011.74
2019-01-05T02:56:34.836Z,1011.53
2019-01-05T02:57:44.525Z,1011.58
2019-01-05T02:58:54.472Z,1011.58
2019-01-05T03:00:04.161Z,1011.5
2019-01-05T03:01:14.137Z,1011.54
2019-01-05T03:02:24.082Z,1011.44
2019-01-05T03:03:33.792Z,1011.44
2019-01-05T03:04:43.835Z,1011.39
2019-01-05T03:05:53.810Z,1011.41
2019-01-05T03:07:03.802Z,1011.3
2019-01-05T03:08:13.766Z,1011.32
2019-01-05T03:09:23.712Z,1011.42
2019-01-05T03:10:33.438Z,1011.31
2019-01-05T03:11:43.135Z,1011.34
2019-01-05T03:12:52.848Z,1011.28
2019-01-05T03:14:02.796Z,1011.3
2019-01-05T03:15:12.498Z,1011.25
2019-01-05T03:16:22.453Z,1011.31
2019-01-05T03:17:32.417Z,1011.33
2019-01-05T03:18:42.369Z,1011.23
2019-01-05T03:19:52.315Z,1011.36
2019-01-05T03:21:02.025Z,1011.37
2019-01-05T03:22:11.967Z,1011.35
2019-01-05T03:23:21.652Z,1011.27
2019-01-05T03:24:31.630Z,1011.34
2019-01-05T03:25:41.569Z,1011.34
2019-01-05T03:26:51.276Z,1011.27
2019-01-05T03:28:01.238Z,1011.25
2019-01-05T03:29:10.953Z,1011.18
2019-01-05T03:30:20.661Z,1011.24
2019-01-05T03:31:30.164Z,1011.22
2019-01-05T03:32:40.179Z,1011.13
2019-01-05T03:33:50.299Z,1011.2
2019-01-05T03:35:00.014Z,1011.09
2019-01-05T03:36:09.960Z,1011.05
2019-01-05T03:37:19.652Z,1011.04
2019-01-05T03:38:29.598Z,1011.02
2019-01-05T03:39:39.549Z,1010.99
2019-01-05T03:40:49.502Z,1011.05
2019-01-05T03:41:59.443Z,1011
2019-01-05T03:43:09.388Z,1011.04
2019-01-05T03:44:18.835Z,1010.99
2019-01-05T03:45:28.536Z,1011.19
2019-01-05T03:46:37.968Z,1011.04
2019-01-05T03:47:47.906Z,1011.03
2019-01-05T03:48:57.592Z,1011.09
2019-01-05T03:50:07.546Z,1011.01
2019-01-05T03:51:17.290Z,1011.03
2019-01-05T03:52:26.995Z,1011.09
2019-01-05T03:53:36.947Z,1011.03
2019-01-05T03:54:46.877Z,1010.93
2019-01-05T03:55:56.328Z,1010.94
2019-01-05T03:57:06.285Z,1010.92
2019-01-05T03:58:16.229Z,1010.94
2019-01-05T03:59:26.184Z,1010.87
2019-01-05T04:00:35.885Z,1010.93
2019-01-05T04:01:45.590Z,1011
2019-01-05T04:02:55.571Z,1011.01
2019-01-05T04:04:05.268Z,1010.86
2019-01-05T04:05:15.201Z,1010.9
2019-01-05T04:06:25.149Z,1010.85
2019-01-05T04:07:34.828Z,1010.96
2019-01-05T04:08:44.520Z,1010.85
2019-01-05T04:09:54.195Z,1010.86
2019-01-05T04:11:04.155Z,1010.92
2019-01-05T04:12:13.832Z,1010.81
2019-01-05T04:13:23.256Z,1010.91
2019-01-05T04:14:33.202Z,1010.87
2019-01-05T04:15:43.134Z,1010.92
2019-01-05T04:16:53.085Z,1010.82
2019-01-05T04:18:03.023Z,1010.79
2019-01-05T04:19:12.726Z,1010.73
2019-01-05T04:20:22.661Z,1010.74
2019-01-05T04:21:32.592Z,1010.76
2019-01-05T04:22:42.541Z,1010.69
2019-01-05T04:23:52.478Z,1010.7
2019-01-05T04:25:02.164Z,1010.72
2019-01-05T04:26:11.844Z,1010.71
2019-01-05T04:27:21.564Z,1010.76
2019-01-05T04:28:31.264Z,1010.67
2019-01-05T04:29:41.206Z,1010.78
2019-01-05T04:30:50.944Z,1010.65
2019-01-05T04:32:00.885Z,1010.77
2019-01-05T04:33:10.828Z,1010.73
2019-01-05T04:34:20.525Z,1010.7
2019-01-05T04:35:29.974Z,1010.7
2019-01-05T04:36:39.920Z,1010.68
2019-01-05T04:37:49.630Z,1010.66
2019-01-05T04:38:59.598Z,1010.82
2019-01-05T04:40:09.291Z,1010.72
2019-01-05T04:41:18.992Z,1010.65
2019-01-05T04:42:28.920Z,1010.64
2019-01-05T04:43:38.351Z,1010.75
2019-01-05T04:44:47.790Z,1010.77
2019-01-05T04:45:57.751Z,1010.77
2019-01-05T04:47:07.698Z,1010.74
2019-01-05T04:48:17.662Z,1010.63
2019-01-05T04:49:27.121Z,1010.67
2019-01-05T04:50:36.574Z,1010.74
2019-01-05T04:51:46.518Z,1010.79
2019-01-05T04:52:56.457Z,1010.7
2019-01-05T04:54:06.166Z,1010.71
2019-01-05T04:55:15.865Z,1010.71
2019-01-05T04:56:25.567Z,1010.71
2019-01-05T04:57:35.520Z,1010.74
2019-01-05T04:58:44.715Z,1010.73
2019-01-05T04:59:54.665Z,1010.77
2019-01-05T05:01:04.354Z,1010.79
2019-01-05T05:02:14.308Z,1010.77
2019-01-05T05:03:24.023Z,1010.79
2019-01-05T05:04:33.972Z,1010.82
2019-01-05T05:05:43.688Z,1010.75
2019-01-05T05:06:53.388Z,1010.78
2019-01-05T05:08:03.087Z,1010.79
2019-01-05T05:09:12.792Z,1010.73
2019-01-05T05:10:22.739Z,1010.78
2019-01-05T05:11:32.694Z,1010.81
2019-01-05T05:12:42.139Z,1010.75
2019-01-05T05:13:52.067Z,1010.68
2019-01-05T05:15:01.782Z,1010.71
2019-01-05T05:16:11.727Z,1010.67
2019-01-05T05:17:21.436Z,1010.67
2019-01-05T05:18:31.376Z,1010.64
2019-01-05T05:19:41.316Z,1010.71
2019-01-05T05:20:51.027Z,1010.75
2019-01-05T05:22:00.730Z,1010.7
2019-01-05T05:23:10.695Z,1010.7
2019-01-05T05:24:20.397Z,1010.73
2019-01-05T05:25:30.347Z,1010.78
2019-01-05T05:26:40.294Z,1010.75
2019-01-05T05:27:50.257Z,1010.66
2019-01-05T05:28:59.947Z,1010.61
2019-01-05T05:30:09.395Z,1010.61
2019-01-05T05:31:19.093Z,1010.58
2019-01-05T05:32:28.797Z,1010.56
2019-01-05T05:33:38.727Z,1010.6
2019-01-05T05:34:48.442Z,1010.58
2019-01-05T05:35:58.136Z,1010.5
2019-01-05T05:37:08.082Z,1010.55
2019-01-05T05:38:18.018Z,1010.52
2019-01-05T05:39:27.703Z,1010.56
2019-01-05T05:40:37.628Z,1010.53
2019-01-05T05:41:47.063Z,1010.44
2019-01-05T05:42:57.021Z,1010.51
2019-01-05T05:44:06.728Z,1010.52
2019-01-05T05:45:16.669Z,1010.54
2019-01-05T05:46:26.365Z,1010.52
2019-01-05T05:47:36.308Z,1010.47
2019-01-05T05:48:46.250Z,1010.56
2019-01-05T05:49:55.695Z,1010.56
2019-01-05T05:51:05.411Z,1010.55
2019-01-05T05:52:15.107Z,1010.61
2019-01-05T05:53:24.541Z,1010.6
2019-01-05T05:54:34.480Z,1010.72
2019-01-05T05:55:44.429Z,1010.65
2019-01-05T05:56:54.419Z,1010.62
2019-01-05T05:58:04.365Z,1010.72
2019-01-05T05:59:13.819Z,1010.63
2019-01-05T06:00:23.547Z,1010.62
2019-01-05T06:01:34.677Z,1010.62
2019-01-05T06:02:44.374Z,1010.64
2019-01-05T06:03:54.072Z,1010.56
2019-01-05T06:05:04.025Z,1010.58
2019-01-05T06:06:13.967Z,1010.66
2019-01-05T06:07:23.907Z,1010.6
2019-01-05T06:08:33.860Z,1010.66
2019-01-05T06:09:43.788Z,1010.55
2019-01-05T06:10:53.223Z,1010.55
2019-01-05T06:12:03.163Z,1010.58
2019-01-05T06:13:12.853Z,1010.54
2019-01-05T06:14:22.791Z,1010.62
2019-01-05T06:15:33.516Z,1010.54
2019-01-05T06:16:43.207Z,1010.45
2019-01-05T06:17:52.926Z,1010.45
2019-01-05T06:19:02.866Z,1010.4
2019-01-05T06:20:12.833Z,1010.48
2019-01-05T06:21:22.769Z,1010.51
2019-01-05T06:22:32.711Z,1010.52
2019-01-05T06:23:42.650Z,1010.65
2019-01-05T06:24:52.591Z,1010.82
2019-01-05T06:26:02.558Z,1010.64
2019-01-05T06:27:12.255Z,1010.71
2019-01-05T06:28:21.951Z,1010.74
2019-01-05T06:29:31.889Z,1010.79
2019-01-05T06:30:41.816Z,1010.77
2019-01-05T06:31:51.491Z,1010.72
2019-01-05T06:33:01.430Z,1010.69
2019-01-05T06:34:10.879Z,1010.65
2019-01-05T06:35:20.803Z,1010.64
2019-01-05T06:36:30.746Z,1010.73
2019-01-05T06:37:40.441Z,1010.77
2019-01-05T06:38:50.128Z,1010.8
2019-01-05T06:40:00.134Z,1010.74
2019-01-05T06:41:10.111Z,1010.79
2019-01-05T06:42:20.059Z,1010.96
2019-01-05T06:43:30.002Z,1010.92
2019-01-05T06:44:39.947Z,1010.91
2019-01-05T06:45:49.889Z,1011
2019-01-05T06:46:59.582Z,1010.87
2019-01-05T06:48:09.304Z,1010.77
2019-01-05T06:49:18.741Z,1010.99
2019-01-05T06:50:28.425Z,1010.92
2019-01-05T06:51:38.376Z,1010.93
2019-01-05T06:52:47.805Z,1011.04
2019-01-05T06:53:57.745Z,1011.05
2019-01-05T06:55:07.439Z,1011.03
2019-01-05T06:56:17.129Z,1011.28
2019-01-05T06:57:26.817Z,1011.19
2019-01-05T06:58:36.523Z,1011.19
2019-01-05T06:59:46.462Z,1011.19
2019-01-05T07:00:56.401Z,1011.3
2019-01-05T07:02:06.098Z,1011.42
2019-01-05T07:03:15.789Z,1011.35
2019-01-05T07:04:25.733Z,1011.38
2019-01-05T07:05:35.674Z,1011.46
2019-01-05T07:06:46.866Z,1011.46
2019-01-05T07:07:56.552Z,1011.41
2019-01-05T07:09:06.259Z,1011.5
2019-01-05T07:10:15.943Z,1011.47
2019-01-05T07:11:25.641Z,1011.52
2019-01-05T07:12:35.587Z,1011.54
2019-01-05T07:13:45.276Z,1011.5
2019-01-05T07:14:55.210Z,1011.54
2019-01-05T07:16:04.894Z,1011.52
2019-01-05T07:17:14.825Z,1011.52
2019-01-05T07:18:24.513Z,1011.59
2019-01-05T07:19:34.462Z,1011.54
2019-01-05T07:20:44.415Z,1011.52
2019-01-05T07:21:54.355Z,1011.55
2019-01-05T07:23:04.285Z,1011.58
2019-01-05T07:24:14.228Z,1011.58
2019-01-05T07:25:23.916Z,1011.59
2019-01-05T07:26:33.852Z,1011.56
2019-01-05T07:27:43.792Z,1011.56
2019-01-05T07:28:53.497Z,1011.57
2019-01-05T07:30:03.451Z,1011.67
2019-01-05T07:31:13.399Z,1011.59
2019-01-05T07:32:23.355Z,1011.64
2019-01-05T07:33:33.046Z,1011.64
2019-01-05T07:34:43.002Z,1011.82
2019-01-05T07:35:52.693Z,1011.83
2019-01-05T07:37:02.145Z,1011.8
2019-01-05T07:38:12.085Z,1011.85
2019-01-05T07:39:21.765Z,1011.88
2019-01-05T07:40:31.466Z,1011.98
2019-01-05T07:41:41.409Z,1011.99
2019-01-05T07:42:51.348Z,1011.97
2019-01-05T07:44:01.055Z,1011.99
2019-01-05T07:45:10.987Z,1012
2019-01-05T07:46:20.675Z,1012.01
2019-01-05T07:47:30.359Z,1012.07
2019-01-05T07:48:40.308Z,1011.99
2019-01-05T07:49:49.748Z,1011.99
2019-01-05T07:50:59.701Z,1012.09
2019-01-05T07:52:09.395Z,1012.06
2019-01-05T07:53:18.841Z,1012.15
2019-01-05T07:54:28.532Z,1012.15
2019-01-05T07:55:38.474Z,1012.1
2019-01-05T07:56:48.427Z,1012.2
2019-01-05T07:57:58.381Z,1012.24
2019-01-05T07:59:08.321Z,1012.19
2019-01-05T08:00:17.520Z,1012.18
2019-01-05T08:01:27.228Z,1012.33
2019-01-05T08:02:37.167Z,1012.28
2019-01-05T08:03:46.855Z,1012.33
2019-01-05T08:04:56.287Z,1012.3
2019-01-05T08:06:05.723Z,1012.36
2019-01-05T08:07:16.497Z,1012.28
2019-01-05T08:08:26.196Z,1012.36
2019-01-05T08:09:36.133Z,1012.39
2019-01-05T08:10:45.816Z,1012.37
2019-01-05T08:11:55.503Z,1012.42
2019-01-05T08:13:05.186Z,1012.4
2019-01-05T08:14:15.134Z,1012.44
2019-01-05T08:15:25.267Z,1012.43
2019-01-05T08:16:35.213Z,1012.41
2019-01-05T08:17:44.924Z,1012.39
2019-01-05T08:18:54.617Z,1012.4
2019-01-05T08:20:04.313Z,1012.38
2019-01-05T08:21:14.016Z,1012.43
2019-01-05T08:22:23.965Z,1012.39
2019-01-05T08:23:33.920Z,1012.41
2019-01-05T08:24:43.864Z,1012.41
2019-01-05T08:25:53.805Z,1012.44
2019-01-05T08:27:03.510Z,1012.43
2019-01-05T08:28:12.692Z,1012.39
2019-01-05T08:29:22.382Z,1012.47
2019-01-05T08:30:32.316Z,1012.46
2019-01-05T08:31:42.019Z,1012.45
2019-01-05T08:32:51.723Z,1012.48
2019-01-05T08:34:01.683Z,1012.51
2019-01-05T08:35:11.617Z,1012.5
2019-01-05T08:36:21.302Z,1012.51
2019-01-05T08:37:31.006Z,1012.51
2019-01-05T08:38:40.944Z,1012.52
2019-01-05T08:39:50.661Z,1012.47
2019-01-05T08:41:00.624Z,1012.49
2019-01-05T08:42:10.056Z,1012.51
2019-01-05T08:43:19.502Z,1012.45
2019-01-05T08:44:29.454Z,1012.5
2019-01-05T08:45:39.411Z,1012.46
2019-01-05T08:46:49.343Z,1012.56
2019-01-05T08:47:59.042Z,1012.49
2019-01-05T08:49:08.742Z,1012.51
2019-01-05T08:50:18.450Z,1012.58
2019-01-05T08:51:28.399Z,1012.49
2019-01-05T08:52:37.825Z,1012.53
2019-01-05T08:53:47.520Z,1012.47
2019-01-05T08:54:57.454Z,1012.57
2019-01-05T08:56:07.153Z,1012.55
2019-01-05T08:57:17.120Z,1012.61
2019-01-05T08:58:26.570Z,1012.53
2019-01-05T08:59:36.257Z,1012.57
2019-01-05T09:00:45.958Z,1012.6
2019-01-05T09:01:55.661Z,1012.61
2019-01-05T09:03:05.604Z,1012.65
2019-01-05T09:04:15.543Z,1012.69
2019-01-05T09:05:25.480Z,1012.68
2019-01-05T09:06:35.166Z,1012.61
2019-01-05T09:07:45.114Z,1012.65
2019-01-05T09:08:54.812Z,1012.8
2019-01-05T09:10:04.736Z,1012.7
2019-01-05T09:11:14.442Z,1012.77
2019-01-05T09:12:24.385Z,1012.76
2019-01-05T09:13:34.342Z,1012.85
2019-01-05T09:14:43.777Z,1012.81
2019-01-05T09:15:53.732Z,1012.89
2019-01-05T09:17:03.671Z,1012.88
2019-01-05T09:18:13.625Z,1012.84
2019-01-05T09:19:23.058Z,1012.84
2019-01-05T09:20:33.002Z,1012.86
2019-01-05T09:21:42.931Z,1012.86
2019-01-05T09:22:52.890Z,1012.94
2019-01-05T09:24:02.844Z,1012.89
2019-01-05T09:25:12.534Z,1012.89
2019-01-05T09:26:22.248Z,1012.85
2019-01-05T09:27:31.704Z,1012.87
2019-01-05T09:28:41.413Z,1012.93
2019-01-05T09:29:51.099Z,1012.87
2019-01-05T09:31:00.807Z,1012.86
2019-01-05T09:32:10.756Z,1012.8
2019-01-05T09:33:20.200Z,1012.79
2019-01-05T09:34:29.896Z,1012.81
2019-01-05T09:35:39.872Z,1012.74
2019-01-05T09:36:49.576Z,1012.79
2019-01-05T09:37:59.278Z,1012.82
2019-01-05T09:39:09.217Z,1012.8
2019-01-05T09:40:19.159Z,1012.85
2019-01-05T09:41:29.099Z,1012.89
2019-01-05T09:42:39.038Z,1012.86
2019-01-05T09:43:48.480Z,1012.84
2019-01-05T09:44:58.434Z,1012.8
2019-01-05T09:46:08.388Z,1012.89
2019-01-05T09:47:18.326Z,1012.94
2019-01-05T09:48:28.013Z,1012.88
2019-01-05T09:49:37.707Z,1012.87
2019-01-05T09:50:47.653Z,1012.84
2019-01-05T09:51:57.368Z,1012.93
2019-01-05T09:53:07.320Z,1012.87
2019-01-05T09:54:17.278Z,1012.83
2019-01-05T09:55:26.972Z,1012.87
2019-01-05T09:56:36.660Z,1012.94
2019-01-05T09:57:46.607Z,1012.98
2019-01-05T09:58:56.308Z,1013
2019-01-05T10:00:06.257Z,1013.08
2019-01-05T10:01:15.956Z,1013.04
2019-01-05T10:02:25.920Z,1013.02
2019-01-05T10:03:35.866Z,1012.98
2019-01-05T10:04:45.806Z,1012.98
2019-01-05T10:05:55.772Z,1012.99
2019-01-05T10:07:05.753Z,1013.04
2019-01-05T10:08:15.693Z,1012.98
2019-01-05T10:09:25.639Z,1012.97
2019-01-05T10:10:35.336Z,1013
2019-01-05T10:11:45.276Z,1013.09
2019-01-05T10:12:55.227Z,1012.94
2019-01-05T10:14:04.928Z,1013.01
2019-01-05T10:15:14.943Z,1013.02
2019-01-05T10:16:24.684Z,1013
2019-01-05T10:17:34.132Z,1013.01
2019-01-05T10:18:44.084Z,1012.98
2019-01-05T10:19:53.783Z,1013
2019-01-05T10:21:03.726Z,1013.01
2019-01-05T10:22:13.686Z,1013.04
2019-01-05T10:23:23.654Z,1013.02
2019-01-05T10:24:33.600Z,1013.02
2019-01-05T10:25:43.541Z,1013.01
2019-01-05T10:26:53.482Z,1012.97
2019-01-05T10:28:03.440Z,1013.06
2019-01-05T10:29:13.436Z,1012.97
2019-01-05T10:30:23.394Z,1013.05
2019-01-05T10:31:33.330Z,1012.98
2019-01-05T10:32:43.270Z,1012.98
2019-01-05T10:33:53.228Z,1012.96
2019-01-05T10:35:03.176Z,1013.03
2019-01-05T10:36:13.125Z,1013.03
2019-01-05T10:37:23.066Z,1013.04
2019-01-05T10:38:33.037Z,1013.13
2019-01-05T10:39:42.270Z,1013.11
2019-01-05T10:40:52.233Z,1013.16
2019-01-05T10:42:03.240Z,1013.14
2019-01-05T10:43:12.962Z,1013.18
2019-01-05T10:44:22.410Z,1013.22
2019-01-05T10:45:32.363Z,1013.19
2019-01-05T10:46:42.076Z,1013.18
2019-01-05T10:47:51.525Z,1013.23
2019-01-05T10:49:01.477Z,1013.24
2019-01-05T10:50:11.190Z,1013.22
2019-01-05T10:51:21.118Z,1013.19
2019-01-05T10:52:31.065Z,1013.21
2019-01-05T10:53:41.039Z,1013.17
2019-01-05T10:54:50.990Z,1013.14
2019-01-05T10:56:00.686Z,1013.25
2019-01-05T10:57:10.392Z,1013.17
2019-01-05T10:58:20.349Z,1013.17
2019-01-05T10:59:30.062Z,1013.17
2019-01-05T11:00:40.008Z,1013.17
2019-01-05T11:01:49.959Z,1013.26
2019-01-05T11:02:59.897Z,1013.22
2019-01-05T11:04:09.852Z,1013.29
2019-01-05T11:05:19.810Z,1013.27
2019-01-05T11:06:29.514Z,1013.27
2019-01-05T11:07:39.210Z,1013.3
2019-01-05T11:08:49.165Z,1013.25
2019-01-05T11:09:58.874Z,1013.3
2019-01-05T11:11:08.832Z,1013.29
2019-01-05T11:12:18.768Z,1013.29
2019-01-05T11:13:28.718Z,1013.28
2019-01-05T11:14:38.654Z,1013.31
2019-01-05T11:15:48.597Z,1013.24
2019-01-05T11:16:58.290Z,1013.31
2019-01-05T11:18:07.999Z,1013.29
2019-01-05T11:19:17.957Z,1013.28
2019-01-05T11:20:27.914Z,1013.23
2019-01-05T11:21:43.151Z,1013.23
2019-01-05T11:22:53.112Z,1013.2
2019-01-05T11:24:02.831Z,1013.29
2019-01-05T11:25:12.541Z,1013.25
2019-01-05T11:26:22.498Z,1013.24
2019-01-05T11:27:32.204Z,1013.31
2019-01-05T11:28:42.227Z,1013.35
2019-01-05T11:29:51.945Z,1013.29
2019-01-05T11:31:01.912Z,1013.3
2019-01-05T11:32:11.634Z,1013.24
2019-01-05T11:33:21.688Z,1013.29
2019-01-05T11:34:31.653Z,1013.25
2019-01-05T11:35:41.651Z,1013.34
2019-01-05T11:36:51.605Z,1013.42
2019-01-05T11:38:01.548Z,1013.36
2019-01-05T11:39:11.505Z,1013.36
2019-01-05T11:40:21.481Z,1013.35
2019-01-05T11:41:30.958Z,1013.35
2019-01-05T11:42:40.927Z,1013.35
2019-01-05T11:43:50.911Z,1013.34
2019-01-05T11:45:00.995Z,1013.36
2019-01-05T11:46:10.907Z,1013.35
2019-01-05T11:47:20.870Z,1013.45
2019-01-05T11:48:30.851Z,1013.36
2019-01-05T11:49:40.833Z,1013.41
2019-01-05T11:50:50.795Z,1013.33
2019-01-05T11:52:00.574Z,1013.31
2019-01-05T11:53:10.539Z,1013.33
2019-01-05T11:54:20.304Z,1013.33
2019-01-05T11:55:30.029Z,1013.42
2019-01-05T11:56:39.792Z,1013.34
2019-01-05T11:57:49.761Z,1013.39
2019-01-05T11:58:59.486Z,1013.45
2019-01-05T12:00:09.493Z,1013.42
2019-01-05T12:01:19.214Z,1013.45
2019-01-05T12:02:28.917Z,1013.45
2019-01-05T12:03:38.904Z,1013.49
2019-01-05T12:04:48.875Z,1013.5
2019-01-05T12:05:58.846Z,1013.54
2019-01-05T12:07:08.821Z,1013.58
2019-01-05T12:08:18.539Z,1013.59
2019-01-05T12:09:28.512Z,1013.55
2019-01-05T12:10:38.490Z,1013.61
2019-01-05T12:11:48.230Z,1013.56
2019-01-05T12:12:57.914Z,1013.59
2019-01-05T12:14:09.250Z,1013.64
2019-01-05T12:15:19.225Z,1013.64
2019-01-05T12:16:29.167Z,1013.6
2019-01-05T12:17:43.699Z,1013.55
2019-01-05T12:18:53.621Z,1013.63
2019-01-05T12:20:03.331Z,1013.66
2019-01-05T12:21:12.775Z,1013.64
2019-01-05T12:22:22.717Z,1013.7
2019-01-05T12:23:32.675Z,1013.71
2019-01-05T12:24:42.395Z,1013.74
2019-01-05T12:25:52.357Z,1013.71
2019-01-05T12:27:01.821Z,1013.73
2019-01-05T12:28:11.270Z,1013.73
2019-01-05T12:29:20.959Z,1013.8
2019-01-05T12:30:30.408Z,1013.73
2019-01-05T12:31:40.363Z,1013.69
2019-01-05T12:32:50.328Z,1013.79
2019-01-05T12:34:00.271Z,1013.72
2019-01-05T12:35:09.984Z,1013.74
2019-01-05T12:36:19.923Z,1013.84
2019-01-05T12:37:29.871Z,1013.73
2019-01-05T12:38:39.562Z,1013.74
2019-01-05T12:39:49.262Z,1013.74
2019-01-05T12:40:59.205Z,1013.81
2019-01-05T12:42:09.142Z,1013.74
2019-01-05T12:43:19.105Z,1013.75
2019-01-05T12:44:28.861Z,1013.87
2019-01-05T12:45:38.803Z,1013.89
2019-01-05T12:46:48.505Z,1013.89
2019-01-05T12:47:58.469Z,1013.95
2019-01-05T12:49:08.425Z,1013.84
2019-01-05T12:50:18.366Z,1013.88
2019-01-05T12:51:28.321Z,1013.88
2019-01-05T12:52:38.286Z,1013.92
2019-01-05T12:53:48.265Z,1013.94
2019-01-05T12:54:59.062Z,1013.87
2019-01-05T12:56:08.779Z,1013.93
2019-01-05T12:57:18.226Z,1013.96
2019-01-05T12:58:27.695Z,1013.84
2019-01-05T12:59:37.636Z,1013.9
2019-01-05T13:00:48.060Z,1013.93
2019-01-05T13:01:58.012Z,1013.91
2019-01-05T13:03:07.971Z,1013.9
2019-01-05T13:04:17.923Z,1013.97
2019-01-05T13:05:27.912Z,1013.94
2019-01-05T13:06:37.623Z,1013.91
2019-01-05T13:07:47.554Z,1013.91
2019-01-05T13:08:57.000Z,1013.93
2019-01-05T13:10:06.476Z,1013.91
2019-01-05T13:11:16.431Z,1013.95
2019-01-05T13:12:26.142Z,1013.96
2019-01-05T13:13:35.836Z,1013.97
2019-01-05T13:14:47.307Z,1013.99
2019-01-05T13:15:56.767Z,1014
2019-01-05T13:17:06.550Z,1014
2019-01-05T13:18:16.512Z,1014.06
2019-01-05T13:19:27.887Z,1014.02
2019-01-05T13:20:37.973Z,1014.05
2019-01-05T13:21:47.435Z,1014.03
2019-01-05T13:22:57.124Z,1014.02
2019-01-05T13:24:07.092Z,1014.05
2019-01-05T13:25:16.808Z,1014.12
2019-01-05T13:26:26.754Z,1014.13
2019-01-05T13:27:36.215Z,1014.18
2019-01-05T13:28:46.195Z,1014.17
2019-01-05T13:29:55.988Z,1014.14
2019-01-05T13:31:06.099Z,1014.23
2019-01-05T13:32:15.825Z,1014.18
2019-01-05T13:33:25.770Z,1014.23
2019-01-05T13:34:35.727Z,1014.27
2019-01-05T13:35:45.425Z,1014.24
2019-01-05T13:36:54.872Z,1014.24
2019-01-05T13:38:04.827Z,1014.3
2019-01-05T13:39:14.780Z,1014.3
2019-01-05T13:40:24.723Z,1014.4
2019-01-05T13:41:34.703Z,1014.35
2019-01-05T13:42:44.657Z,1014.41
2019-01-05T13:43:54.354Z,1014.41
2019-01-05T13:45:03.803Z,1014.41
2019-01-05T13:46:13.745Z,1014.41
2019-01-05T13:47:23.446Z,1014.51
2019-01-05T13:48:33.413Z,1014.47
2019-01-05T13:49:43.365Z,1014.54
2019-01-05T13:50:53.317Z,1014.53
2019-01-05T13:52:03.252Z,1014.5
2019-01-05T13:53:13.196Z,1014.54
2019-01-05T13:54:22.647Z,1014.55
2019-01-05T13:55:32.334Z,1014.53
2019-01-05T13:56:42.035Z,1014.58
2019-01-05T13:57:51.978Z,1014.62
2019-01-05T13:59:01.944Z,1014.54
2019-01-05T14:00:11.892Z,1014.58
2019-01-05T14:01:21.843Z,1014.65
2019-01-05T14:02:31.802Z,1014.64
2019-01-05T14:03:41.755Z,1014.61
2019-01-05T14:04:51.447Z,1014.64
2019-01-05T14:06:01.400Z,1014.66
2019-01-05T14:07:11.085Z,1014.68
2019-01-05T14:08:20.778Z,1014.67